Flight Track Log - Related Links

Times and Time Zones

All times are in EDT time to prevent confusion due to time zone crossing. See the AAY861 flight status page for this flight to view local times or setup timezone preferences in your user account.

Time Position Orientation Groundspeed Altitude Reporting Facility
EDT Latitude Longitude Course Direction KTS MPH feet Rate Location/Type
Wed 09:33:28 AM 37.8092 -84.5117 158° South 298 343 11,300  Level FlightAware ADS-B
Wed 09:34:20 AM 37.7512 -84.4623 166° South 303 349 13,400 2,000 Climbing FlightAware ADS-B
Wed 09:35:00 AM 37.4407 -84.3204 166° South  Level FlightAware Approximate
Wed 09:36:04 AM 37.6378 -84.4336 180° South 354 407 16,500  Level FlightAware ADS-B
Wed 09:37:28 AM 37.4523 -84.4338 180° South 370 426 19,600 1,826 Climbing FlightAware ADS-B
Wed 09:41:03 AM 37.0716 -84.4340 180° South 394 453 25,600 1,578 Climbing FlightAware ADS-B
Wed 09:42:17 AM 36.9379 -84.4473 191° South 402 463 27,200 1,306 Climbing FlightAware ADS-B
Wed 09:47:29 AM 36.3581 -84.5766 189° South 394 453 34,000 1,261 Climbing FlightAware ADS-B
Wed 09:48:28 AM 36.2520 -84.5951 180° South 393 452 35,000 526 Climbing FlightAware ADS-B
Wed 09:49:23 AM 36.1697 -84.5917 180° South 403 464 35,000  Level Atlanta Center
Wed 09:50:23 AM 36.0614 -84.5833 176° South 398 458 35,000  Level Atlanta Center
Wed 09:51:23 AM 35.9486 -84.5747 176° South 403 464 35,000 291 Level Atlanta Center
Wed 09:57:16 AM 35.2631 -84.5328 177° South 390 449 37,000 305 Climbing FlightAware ADS-B (KDZJ)
Wed 09:57:57 AM 35.1875 -84.5283 177° South 388 447 37,000  Level FlightAware ADS-B (KDZJ)
Wed 09:58:38 AM 35.1124 -84.5237 177° South 389 448 37,000  Level FlightAware ADS-B (KDZJ)
Wed 09:59:17 AM 35.0400 -84.5192 177° South 391 450 37,000  Level FlightAware ADS-B (KDZJ)
Wed 09:59:57 AM 34.9668 -84.5146 177° South 390 449 37,000  Level FlightAware ADS-B (KDZJ)
Wed 10:00:37 AM 34.8931 -84.5103 177° South 390 449 37,000  Level FlightAware ADS-B (KDZJ)
Wed 10:01:17 AM 34.8194 -84.5057 177° South 391 450 37,000  Level FlightAware ADS-B (KDZJ)
Wed 10:01:57 AM 34.7445 -84.5012 177° South 401 461 37,000  Level FlightAware ADS-B (KDZJ)
Wed 10:02:37 AM 34.6707 -84.4968 177° South 401 461 37,000  Level FlightAware ADS-B (KDZJ)
Wed 10:03:18 AM 34.5956 -84.4923 177° South 403 464 37,000  Level FlightAware ADS-B (KDZJ)
Wed 10:03:57 AM 34.5214 -84.4877 177° South 404 465 37,000  Level FlightAware ADS-B (KDZJ)
Wed 10:04:38 AM 34.4454 -84.4831 177° South 403 464 37,000  Level FlightAware ADS-B (KDZJ)
Wed 10:05:38 AM 34.3342 -84.4766 177° South 402 463 37,000  Level FlightAware ADS-B (KDZJ)
Wed 10:06:17 AM 34.2609 -84.4722 177° South 403 464 37,000  Level FlightAware ADS-B (KDZJ)
Wed 10:06:58 AM 34.1855 -84.4677 177° South 405 466 37,000  Level FlightAware ADS-B (KDZJ)
Wed 10:07:37 AM 34.1109 -84.4632 177° South 406 467 37,000  Level FlightAware ADS-B (KDZJ)
Wed 10:08:18 AM 34.0348 -84.4587 177° South 405 466 37,000  Level FlightAware ADS-B (KDZJ)
Wed 10:08:56 AM 33.9626 -84.4544 177° South 406 467 37,000  Level FlightAware ADS-B (KDZJ)
Wed 10:09:37 AM 33.8860 -84.4498 177° South 405 466 37,000  Level FlightAware ADS-B (KDZJ)
Wed 10:10:23 AM 33.8208 -84.4489 177° South 411 473 37,000  Level Atlanta Center
Wed 10:11:23 AM 33.7122 -84.4408 176° South 405 466 37,000  Level Atlanta Center
Wed 10:12:23 AM 33.6203 -84.4356 177° South 405 466 37,000  Level Atlanta Center
Wed 10:13:23 AM 33.4931 -84.4325 179° South 410 472 37,000  Level Atlanta Center
Wed 10:14:23 AM 33.3803 -84.4319 180° South 410 472 37,000  Level Atlanta Center
Wed 10:15:23 AM 33.2633 -84.4314 180° South 410 472 37,000  Level Atlanta Center
Wed 10:16:23 AM 33.1528 -84.4258 178° South 410 472 37,000  Level Atlanta Center
Wed 10:17:23 AM 33.0400 -84.4253 180° South 410 472 37,000  Level Atlanta Center
Wed 10:18:23 AM 32.9233 -84.4225 179° South 410 472 37,000  Level Atlanta Center
Wed 10:19:23 AM 32.8106 -84.4194 179° South 410 472 37,000  Level Atlanta Center
Wed 10:20:23 AM 32.6894 -84.4164 179° South 410 472 37,000  Level Atlanta Center
Wed 10:21:23 AM 32.5747 -84.4158 180° South 403 464 37,000  Level Atlanta Center
Wed 10:22:23 AM 32.4619 -84.4131 179° South 403 464 37,000  Level Atlanta Center
Wed 10:24:21 AM 32.2347 -84.4081 179° South 405 466 37,000  Level Jacksonville Center
Wed 10:25:21 AM 32.1200 -84.4061 179° South 405 466 37,000 -200 Level Jacksonville Center
Wed 10:26:21 AM 32.0031 -84.4042 179° South 405 466 36,600 -542 Descending Jacksonville Center
Wed 10:32:44 AM 31.2497 -84.3867 179° South 430 495 33,000 -475 Descending FlightAware ADS-B (KONZ)
Wed 10:33:43 AM 31.1321 -84.3845 179° South 433 498 33,100  Climbing FlightAware ADS-B (KONZ)
Wed 10:34:13 AM 31.0702 -84.3834 179° South 432 497 33,000 -439 Descending FlightAware ADS-B (KONZ)
Wed 10:35:05 AM 30.9765 -84.3815 179° South 429 494 32,500 -733 Descending FlightAware ADS-B (KONZ)
Wed 10:35:43 AM 30.8915 -84.3798 179° South 431 496 31,900 -1,059 Descending FlightAware ADS-B (KONZ)
Wed 10:36:13 AM 30.8307 -84.3787 179° South 427 491 31,300 -857 Descending FlightAware ADS-B (KONZ)
Wed 10:36:46 AM 30.7738 -84.3775 179° South 414 476 31,000 -265 Descending FlightAware ADS-B
Wed 10:37:21 AM 30.7002 -84.3761 179° South 417 480 31,000  Level FlightAware ADS-B (KONZ)
Wed 10:37:53 AM 30.6411 -84.3750 179° South 418 481 31,000  Level FlightAware ADS-B (KONZ)
Wed 10:38:30 AM 30.5698 -84.3718 174° South 419 482 31,000  Level FlightAware ADS-B
Wed 10:38:43 AM 30.5419 -84.3628 158° South 423 487 31,000  Level FlightAware ADS-B (KONZ)
Wed 10:39:20 AM 30.4778 -84.3217 150° Southeast 424 488 31,000  Level FlightAware ADS-B
Wed 10:39:50 AM 30.4273 -84.2885 151° Southeast 423 487 31,000  Level FlightAware ADS-B
Wed 10:40:22 AM 30.3764 -84.2552 151° Southeast 423 487 31,000  Level FlightAware ADS-B (KONZ)
Wed 10:40:53 AM 30.3191 -84.2175 148° Southeast 426 490 31,000  Level FlightAware ADS-B (KONZ)
Wed 10:41:25 AM 30.2684 -84.1770 144° Southeast 428 493 31,000 -97 Level FlightAware ADS-B (KONZ)
Wed 10:41:55 AM 30.2194 -84.1346 142° Southeast 429 494 30,900 -800 Descending FlightAware ADS-B (KONZ)
Wed 10:42:25 AM 30.1732 -84.0928 142° Southeast 420 483 30,200 -1,400 Descending FlightAware ADS-B (KONZ)
Wed 10:42:55 AM 30.1305 -84.0542 142° Southeast 416 479 29,500 -1,412 Descending FlightAware ADS-B (KONZ)
Wed 10:43:33 AM 30.0917 -84.0191 142° Southeast 410 472 28,600 -1,304 Descending FlightAware ADS-B (KONZ)
Wed 10:44:04 AM 30.0248 -83.9582 141° Southeast 407 468 28,000 -1,027 Descending FlightAware ADS-B (KONZ)
Wed 10:45:24 AM 30.0205 -83.9542 142° Southeast 405 466 26,700 -957 Descending FlightAware ADS-B (KONZ)
Wed 10:46:22 AM 29.8269 -83.7808 142° Southeast 415 478 25,800 -974 Descending Jacksonville Center
Wed 10:47:21 AM 29.7400 -83.7058 143° Southeast 410 472 24,800 -908 Descending Jacksonville Center
Wed 10:48:21 AM 29.6483 -83.6478 151° Southeast 405 466 24,000 -397 Descending Jacksonville Center
Wed 10:49:22 AM 29.5442 -83.6158 165° South 374 430 24,000  Level Jacksonville Center
Wed 10:50:22 AM 29.4442 -83.5842 165° South 379 436 24,000  Level Jacksonville Center
Wed 10:51:22 AM 29.3503 -83.5550 165° South 384 442 24,000  Level Jacksonville Center
Wed 10:52:21 AM 29.2483 -83.5186 163° South 384 442 24,000 -50 Level Jacksonville Center
Wed 10:53:21 AM 29.1525 -83.4681 155° Southeast 384 442 23,900 -347 Descending Jacksonville Center
Wed 10:54:22 AM 29.0567 -83.4056 150° Southeast 390 449 23,300 -744 Descending Jacksonville Center
Wed 10:55:22 AM 28.9608 -83.3433 150° Southeast 390 449 22,400 -1,160 Descending Jacksonville Center
Wed 10:56:21 AM 28.8694 -83.2839 150° Southeast 390 449 21,000 -1,613 Descending Jacksonville Center
Wed 10:57:21 AM 28.7797 -83.2289 152° Southeast 378 435 19,200 -1,686 Descending Jacksonville Center
Wed 10:58:22 AM 28.6900 -83.1742 152° Southeast 367 422 17,600 -1,675 Descending Jacksonville Center
Wed 10:59:55 AM 28.5500 -83.0833 150° Southeast 355 409 14,900 -1,585 Descending Tampa TRACON
Wed 11:01:01 AM 28.4667 -83.0167 145° Southeast 327 376 13,400 -1,714 Descending Tampa TRACON
Wed 11:02:01 AM 28.4000 -82.9500 139° Southeast 308 354 11,300 -2,200 Descending Tampa TRACON
Wed 11:03:01 AM 28.3500 -82.8833 130° Southeast 302 348 9,000 -2,296 Descending Tampa TRACON
Wed 11:03:56 AM 28.2833 -82.8167 139° Southeast 287 330 6,900 -2,250 Descending Tampa TRACON
Wed 11:05:01 AM 28.2167 -82.7667 147° Southeast 279 321 4,500 -2,048 Descending Tampa TRACON
Wed 11:06:02 AM 28.1500 -82.7333 156° South 257 296 2,600 -902 Descending Tampa TRACON
Wed 11:08:14 AM 28.0333 -82.7167 190° South 172 198 1,600 -394 Descending Tampa TRACON
Wed 11:09:20 AM 27.9833 -82.7000 164° South 132 152 1,300 -444 Descending Tampa TRACON
Wed 11:10:02 AM 27.9667 -82.7000 180° South 129 148 800 -714 Descending Tampa TRACON
Wed 11:15:00 AM 27.9100 -82.6875 190° South  Level Estimated

Login

Don't have an account? Register now (free) for customized features, flight alerts, and more!